»·PEaware :: N826BR KBOI-KPDX

N826BR :: KBOI-KPDX

FLIGHT INFORMATION

Flight Status: Arrived
Operator: Privately registered:
United States
More flights under this callsign
Pilot: Chris C. (17882)
Aircraft: BOMBARDIER BD-100 CHALLENGER 300
(CL30)
More flights by this aircraft type
Origin: KBOI Boise Air Terminal/Gowen
United States
Destination: KPDX Portland Intl
United States
More flights between these airports :: More routes between these airports
Route: BOI3 BOI SAILL BUEEL JOTBA HHOOD4
File this flight plan on PilotEdge
Remarks:
Altitude:
(Current/Filed)
38,000ft
Speed:
(Current/Filed)
462kts
Departed: 25-Mar-20 06:40 PM
Arrived: 25-Mar-20 07:39 PM
Distance/Time
Traveled:
297nm/0:58
Distance/Time
To Go:
Arrived

Flight Plot

Page will automatically refresh every two minutes.


Map Options




Map Legend


Flown Route
Filed Route
Departure Airport
Arrival Airport
Navaid (VOR, NDB)
Fix

Horizontal Profiles

Position Reports

Time Latitude Longitude Heading Altitude Ground
Speed
25-Mar-20 18:19 43.569853 -116.227343 183 2842ft 0kts
25-Mar-20 18:20 43.569853 -116.227343 183 2842ft 0kts
25-Mar-20 18:21 43.569853 -116.227343 183 2842ft 0kts
25-Mar-20 18:22 43.569853 -116.227343 183 2842ft 0kts
25-Mar-20 18:23 43.569853 -116.227343 183 2842ft 0kts
25-Mar-20 18:24 43.569853 -116.227343 183 2842ft 0kts
25-Mar-20 18:25 43.569853 -116.227343 183 2842ft 0kts
25-Mar-20 18:26 43.569853 -116.227343 183 2842ft 0kts
25-Mar-20 18:27 43.569853 -116.227343 183 2842ft 0kts
25-Mar-20 18:28 43.569853 -116.227343 183 2842ft 0kts
25-Mar-20 18:29 43.569853 -116.227343 183 2842ft 0kts
25-Mar-20 18:30 43.569853 -116.227343 183 2842ft 0kts
25-Mar-20 18:31 43.569853 -116.227343 183 2842ft 0kts
25-Mar-20 18:32 43.569667 -116.227720 266 2842ft 8kts
25-Mar-20 18:33 43.567641 -116.225820 114 2846ft 21kts
25-Mar-20 18:34 43.564995 -116.217944 118 2854ft 19kts
25-Mar-20 18:35 43.563069 -116.212453 115 2861ft 18kts
25-Mar-20 18:36 43.561184 -116.206918 115 2866ft 12kts
25-Mar-20 18:37 43.559632 -116.202516 141 2871ft 4kts
25-Mar-20 18:38 43.559503 -116.202423 159 2871ft 0kts
25-Mar-20 18:39 43.560364 -116.208104 295 2862ft 103kts
25-Mar-20 18:40 43.582864 -116.278443 292 6541ft 263kts
25-Mar-20 18:41 43.612115 -116.372355 291 12901ft 285kts
25-Mar-20 18:42 43.635827 -116.484937 279 16029ft 357kts
25-Mar-20 18:43 43.652625 -116.602669 279 16788ft 279kts
25-Mar-20 18:44 43.669808 -116.722919 278 20418ft 332kts
25-Mar-20 18:45 43.688041 -116.851426 277 24298ft 349kts
25-Mar-20 18:46 43.706972 -116.986232 278 27367ft 369kts
25-Mar-20 18:47 43.731733 -117.127413 289 29810ft 393kts
25-Mar-20 18:48 43.775684 -117.268873 290 32106ft 407kts
25-Mar-20 18:49 43.820294 -117.411452 289 34807ft 401kts
25-Mar-20 18:50 43.864256 -117.552529 289 37165ft 398kts
25-Mar-20 18:51 43.921530 -117.690108 298 37993ft 434kts
25-Mar-20 18:52 43.986898 -117.832474 298 37983ft 435kts
25-Mar-20 18:53 44.051862 -117.974147 298 37978ft 434kts
25-Mar-20 18:54 44.116723 -118.116233 298 37971ft 435kts
25-Mar-20 18:55 44.181494 -118.258802 298 37988ft 435kts
25-Mar-20 18:56 44.245754 -118.400945 298 37996ft 434kts
25-Mar-20 18:57 44.310060 -118.543888 298 37995ft 435kts
25-Mar-20 18:58 44.373301 -118.685181 297 38001ft 434kts
25-Mar-20 18:59 44.437276 -118.828835 298 38001ft 434kts
25-Mar-20 19:00 44.501118 -118.972958 299 38000ft 436kts
25-Mar-20 19:01 44.564929 -119.117609 299 37999ft 438kts
25-Mar-20 19:02 44.628772 -119.263088 299 37998ft 437kts
25-Mar-20 19:03 44.692494 -119.409083 299 37592ft 447kts
25-Mar-20 19:04 44.754797 -119.552490 299 35979ft 409kts
25-Mar-20 19:05 44.812740 -119.686582 298 34516ft 394kts
25-Mar-20 19:06 44.868528 -119.816284 298 33086ft 384kts
25-Mar-20 19:07 44.924523 -119.947082 299 31607ft 394kts
25-Mar-20 19:08 44.981497 -120.080798 299 30037ft 399kts
25-Mar-20 19:09 45.038595 -120.215433 300 28407ft 400kts
25-Mar-20 19:10 45.095231 -120.349577 301 26968ft 392kts
25-Mar-20 19:11 45.150713 -120.481562 302 25497ft 387kts
25-Mar-20 19:12 45.202911 -120.613367 300 23791ft 368kts
25-Mar-20 19:13 45.248881 -120.732591 300 22255ft 325kts
25-Mar-20 19:14 45.290511 -120.841022 300 20892ft 307kts
25-Mar-20 19:15 45.331389 -120.947904 300 19558ft 312kts
25-Mar-20 19:16 45.373399 -121.058208 300 18033ft 324kts
25-Mar-20 19:17 45.416423 -121.171445 300 16573ft 322kts
25-Mar-20 19:18 45.445535 -121.290904 288 15152ft 317kts
25-Mar-20 19:19 45.469673 -121.411800 288 13552ft 314kts
25-Mar-20 19:20 45.492705 -121.527908 288 12319ft 294kts
25-Mar-20 19:21 45.514091 -121.636523 288 11125ft 277kts
25-Mar-20 19:22 45.530717 -121.746066 275 8032ft 306kts
25-Mar-20 19:23 45.534255 -121.846437 275 7958ft 233kts
25-Mar-20 19:24 45.537927 -121.949018 277 8974ft 264kts
25-Mar-20 19:25 45.556923 -122.046706 288 8982ft 251kts
25-Mar-20 19:26 45.576528 -122.140996 288 8980ft 245kts
25-Mar-20 19:27 45.596143 -122.235455 288 8983ft 253kts
25-Mar-20 19:28 45.615586 -122.329609 288 8402ft 245kts
25-Mar-20 19:29 45.634357 -122.420856 288 7611ft 242kts
25-Mar-20 19:30 45.659016 -122.507248 298 6408ft 225kts
25-Mar-20 19:31 45.686505 -122.584161 298 5442ft 215kts
25-Mar-20 19:32 45.712875 -122.657189 298 4377ft 194kts
25-Mar-20 19:33 45.710470 -122.720127 205 2826ft 193kts
25-Mar-20 19:34 45.662908 -122.736844 155 2128ft 162kts
25-Mar-20 19:35 45.635711 -122.700692 117 1869ft 130kts
25-Mar-20 19:36 45.618404 -122.655854 118 1192ft 136kts
25-Mar-20 19:37 45.600213 -122.609474 118 354ft 131kts
25-Mar-20 19:38 45.587553 -122.577058 119 36ft 20kts
25-Mar-20 19:39 45.585419 -122.577842 300 36ft 5kts
25-Mar-20 19:40 45.585544 -122.578161 298 36ft 0kts
25-Mar-20 19:41 45.585544 -122.578161 298 36ft 0kts

Navigation Log

Ident Type
Flight plan parsing failed, navigation log unavailable